createdAt,value
2019-03-13T00:00:15.523Z,7.12
2019-03-13T00:02:44.693Z,8.28
2019-03-13T00:05:13.164Z,8.88
2019-03-13T00:07:41.545Z,8.98
2019-03-13T00:10:10.649Z,15.32
2019-03-13T00:12:39.139Z,10.98
2019-03-13T00:15:12.502Z,16.55
2019-03-13T00:17:41.033Z,7.62
2019-03-13T00:20:10.501Z,10.00
2019-03-13T00:22:38.895Z,11.93
2019-03-13T00:25:08.479Z,12.60
2019-03-13T00:27:36.894Z,10.00
2019-03-13T00:30:07.406Z,6.42
2019-03-13T00:32:35.898Z,15.85
2019-03-13T00:35:05.634Z,9.08
2019-03-13T00:37:34.023Z,16.87
2019-03-13T00:40:02.431Z,5.83
2019-03-13T00:42:30.851Z,14.35
2019-03-13T00:44:59.311Z,14.75
2019-03-13T00:47:27.706Z,16.12
2019-03-13T00:49:56.098Z,14.07
2019-03-13T00:52:24.486Z,8.20
2019-03-13T00:54:52.946Z,11.43
2019-03-13T00:57:21.408Z,12.18
2019-03-13T00:59:49.773Z,10.10
2019-03-13T01:02:22.591Z,18.85
2019-03-13T01:04:52.610Z,13.35
2019-03-13T01:07:21.023Z,9.55
2019-03-13T01:09:49.409Z,13.78
2019-03-13T01:12:17.851Z,17.57
2019-03-13T01:14:46.258Z,14.50
2019-03-13T01:17:14.711Z,13.18
2019-03-13T01:19:43.117Z,16.45
2019-03-13T01:22:11.698Z,13.10
2019-03-13T01:24:42.198Z,14.23
2019-03-13T01:27:10.589Z,20.97
2019-03-13T01:29:39.057Z,14.47
2019-03-13T01:32:09.169Z,15.18
2019-03-13T01:34:39.239Z,13.75
2019-03-13T01:37:07.669Z,18.73
2019-03-13T01:39:36.053Z,12.63
2019-03-13T01:42:04.533Z,10.10
2019-03-13T01:44:34.026Z,11.88
2019-03-13T01:47:02.425Z,8.88
2019-03-13T01:49:31.006Z,16.52
2019-03-13T01:51:59.418Z,14.87
2019-03-13T01:54:27.815Z,17.82
2019-03-13T01:56:56.393Z,20.08
2019-03-13T01:59:24.766Z,18.35
2019-03-13T02:01:53.238Z,9.60
2019-03-13T02:04:21.658Z,14.73
2019-03-13T02:06:50.045Z,13.00
2019-03-13T02:09:18.457Z,18.92
2019-03-13T02:11:46.906Z,17.07
2019-03-13T02:14:15.289Z,13.30
2019-03-13T02:16:43.762Z,14.35
2019-03-13T02:19:12.191Z,11.68
2019-03-13T02:21:40.622Z,12.95
2019-03-13T02:24:09.057Z,18.85
2019-03-13T02:26:37.482Z,14.00
2019-03-13T02:29:05.940Z,19.75
2019-03-13T02:31:34.339Z,14.78
2019-03-13T02:34:02.745Z,14.60
2019-03-13T02:36:31.147Z,17.23
2019-03-13T02:38:59.532Z,11.43
2019-03-13T02:41:27.949Z,15.28
2019-03-13T02:43:56.341Z,20.50
2019-03-13T02:46:25.746Z,14.25
2019-03-13T02:48:54.132Z,16.70
2019-03-13T02:51:22.520Z,12.58
2019-03-13T02:53:50.962Z,12.35
2019-03-13T02:56:19.354Z,18.73
2019-03-13T02:58:47.814Z,24.05
2019-03-13T03:01:17.847Z,19.77
2019-03-13T03:03:50.980Z,16.48
2019-03-13T03:06:19.379Z,11.50
2019-03-13T03:08:47.821Z,13.50
2019-03-13T03:11:16.207Z,11.85
2019-03-13T03:13:44.767Z,17.77
2019-03-13T03:16:13.149Z,14.55
2019-03-13T03:18:41.593Z,13.95
2019-03-13T03:21:09.984Z,15.32
2019-03-13T03:23:38.407Z,17.75
2019-03-13T03:26:06.814Z,16.82
2019-03-13T03:28:35.322Z,16.62
2019-03-13T03:31:03.796Z,19.45
2019-03-13T03:33:32.222Z,18.45
2019-03-13T03:36:00.641Z,15.38
2019-03-13T03:38:29.030Z,22.05
2019-03-13T03:40:57.495Z,19.62
2019-03-13T03:43:39.164Z,13.35
2019-03-13T03:45:56.070Z,21.95
2019-03-13T03:48:24.579Z,23.40
2019-03-13T03:50:53.007Z,20.95
2019-03-13T03:53:21.429Z,20.12
2019-03-13T03:55:50.997Z,22.22
2019-03-13T03:58:19.381Z,19.32
2019-03-13T04:00:47.944Z,21.68
2019-03-13T04:03:16.314Z,29.67
2019-03-13T04:05:45.702Z,22.13
2019-03-13T04:08:14.125Z,17.60
2019-03-13T04:10:42.512Z,24.37
2019-03-13T04:13:10.909Z,26.37
2019-03-13T04:15:40.316Z,26.55
2019-03-13T04:18:08.747Z,21.27
2019-03-13T04:20:37.121Z,20.12
2019-03-13T04:23:05.553Z,22.55
2019-03-13T04:25:33.957Z,20.45
2019-03-13T04:28:02.395Z,26.82
2019-03-13T04:30:30.772Z,22.95
2019-03-13T04:32:59.198Z,24.90
2019-03-13T04:35:27.602Z,19.87
2019-03-13T04:37:55.992Z,25.77
2019-03-13T04:40:24.449Z,35.48
2019-03-13T04:42:52.891Z,22.22
2019-03-13T04:45:21.286Z,25.82
2019-03-13T04:47:49.672Z,23.05
2019-03-13T04:50:18.159Z,26.07
2019-03-13T04:52:46.546Z,25.48
2019-03-13T04:55:16.129Z,34.40
2019-03-13T04:57:44.569Z,27.37
2019-03-13T05:00:20.152Z,28.32
2019-03-13T05:02:48.526Z,22.45
2019-03-13T05:05:37.712Z,23.40
2019-03-13T05:08:06.196Z,26.37
2019-03-13T05:10:34.601Z,24.60
2019-03-13T05:13:03.089Z,28.70
2019-03-13T05:15:40.067Z,25.48
2019-03-13T05:18:08.451Z,21.90
2019-03-13T05:20:36.863Z,25.05
2019-03-13T05:23:05.315Z,31.02
2019-03-13T05:25:33.732Z,21.05
2019-03-13T05:28:02.143Z,23.92
2019-03-13T05:30:30.591Z,26.42
2019-03-13T05:32:58.976Z,30.25
2019-03-13T05:35:27.410Z,22.67
2019-03-13T05:37:55.839Z,35.78
2019-03-13T05:40:24.223Z,30.02
2019-03-13T05:42:52.667Z,24.57
2019-03-13T05:45:21.122Z,27.32
2019-03-13T05:47:49.513Z,24.15
2019-03-13T05:50:17.958Z,23.83
2019-03-13T05:52:46.398Z,30.80
2019-03-13T05:55:14.789Z,23.75
2019-03-13T05:57:43.222Z,30.60
2019-03-13T06:00:13.317Z,31.27
2019-03-13T06:02:41.729Z,34.83
2019-03-13T06:05:11.069Z,32.33
2019-03-13T06:07:39.624Z,29.37
2019-03-13T06:10:10.603Z,18.82
2019-03-13T06:12:39.002Z,28.67
2019-03-13T06:15:14.534Z,24.65
2019-03-13T06:17:42.930Z,31.15
2019-03-13T06:20:16.139Z,24.60
2019-03-13T06:22:44.528Z,31.65
2019-03-13T06:25:13.673Z,33.05
2019-03-13T06:27:42.063Z,23.10
2019-03-13T06:30:16.556Z,39.90
2019-03-13T06:32:44.988Z,36.05
2019-03-13T06:35:13.417Z,33.63
2019-03-13T06:37:42.063Z,28.67
2019-03-13T06:40:12.478Z,36.80
2019-03-13T06:42:40.880Z,38.67
2019-03-13T06:45:12.455Z,25.52
2019-03-13T06:47:40.880Z,20.68
2019-03-13T06:50:15.450Z,30.72
2019-03-13T06:52:43.865Z,23.42
2019-03-13T06:55:12.237Z,23.42
2019-03-13T06:57:40.668Z,30.32
2019-03-13T07:00:27.149Z,31.40
2019-03-13T07:03:12.339Z,26.37
2019-03-13T07:05:57.372Z,33.90
2019-03-13T07:08:33.442Z,30.05
2019-03-13T07:11:03.501Z,30.80
2019-03-13T07:13:33.581Z,29.82
2019-03-13T07:16:09.639Z,38.13
2019-03-13T07:18:42.345Z,29.75
2019-03-13T07:21:15.349Z,31.00
2019-03-13T07:23:54.541Z,23.60
2019-03-13T07:26:24.572Z,27.20
2019-03-13T07:28:54.693Z,28.30
2019-03-13T07:31:27.652Z,30.23
2019-03-13T07:33:57.692Z,24.63
2019-03-13T07:36:44.068Z,31.75
2019-03-13T07:39:29.384Z,27.55
2019-03-13T07:42:16.013Z,30.45
2019-03-13T07:44:49.024Z,26.35
2019-03-13T07:47:19.034Z,26.23
2019-03-13T07:49:55.166Z,31.07
2019-03-13T07:52:25.179Z,22.10
2019-03-13T07:54:58.091Z,31.10
2019-03-13T07:57:28.146Z,28.15
2019-03-13T08:00:13.104Z,19.98
2019-03-13T08:02:52.651Z,27.02
2019-03-13T08:05:22.694Z,17.45
2019-03-13T08:07:55.585Z,29.65
2019-03-13T08:10:28.312Z,24.92
2019-03-13T08:13:01.170Z,24.12
2019-03-13T08:15:44.752Z,25.45
2019-03-13T08:18:14.772Z,30.57
2019-03-13T08:20:50.540Z,29.98
2019-03-13T08:23:20.553Z,33.73
2019-03-13T08:26:06.742Z,22.50
2019-03-13T08:28:39.298Z,24.18
2019-03-13T08:31:09.386Z,20.50
2019-03-13T08:33:56.647Z,22.05
2019-03-13T08:36:26.677Z,21.65
2019-03-13T08:39:02.880Z,23.27
2019-03-13T08:41:32.936Z,24.87
2019-03-13T08:44:05.865Z,24.95
2019-03-13T08:46:35.893Z,25.48
2019-03-13T08:49:22.330Z,20.88
2019-03-13T08:52:04.816Z,20.12
2019-03-13T08:54:34.954Z,17.57
2019-03-13T08:57:17.216Z,15.63
2019-03-13T08:59:59.249Z,17.02
2019-03-13T09:02:29.285Z,18.48
2019-03-13T09:04:59.331Z,14.85
2019-03-13T09:07:38.680Z,13.68
2019-03-13T09:10:26.931Z,15.48
2019-03-13T09:13:01.496Z,10.63
2019-03-13T09:15:38.447Z,14.63
2019-03-13T09:18:08.483Z,14.30
2019-03-13T09:20:53.846Z,15.50
2019-03-13T09:23:26.841Z,10.35
2019-03-13T09:26:07.019Z,13.58
2019-03-13T09:28:55.632Z,12.53
2019-03-13T09:31:25.788Z,16.25
2019-03-13T09:33:58.519Z,9.53
2019-03-13T09:36:35.487Z,12.93
2019-03-13T09:39:15.723Z,12.78
2019-03-13T09:41:48.605Z,12.85
2019-03-13T09:44:21.422Z,17.17
2019-03-13T09:46:54.627Z,14.78
2019-03-13T09:49:33.591Z,14.13
2019-03-13T09:52:09.993Z,19.62
2019-03-13T09:54:42.927Z,19.12
2019-03-13T09:57:22.084Z,25.48
2019-03-13T10:00:04.361Z,21.27
2019-03-13T10:02:51.002Z,18.90
2019-03-13T10:05:24.299Z,17.52
2019-03-13T10:08:12.321Z,24.43
2019-03-13T10:10:45.257Z,25.50
2019-03-13T10:13:24.355Z,27.93
2019-03-13T10:15:57.363Z,24.90
2019-03-13T10:18:30.121Z,25.27
2019-03-13T10:21:00.208Z,21.75
2019-03-13T10:23:46.535Z,13.05
2019-03-13T10:26:22.354Z,18.82
2019-03-13T10:28:55.413Z,18.15
2019-03-13T10:31:37.444Z,24.75
2019-03-13T10:34:07.605Z,27.58
2019-03-13T10:36:50.772Z,24.70
2019-03-13T10:42:15.422Z,18.87
2019-03-13T10:44:49.483Z,15.83
2019-03-13T10:47:19.597Z,11.03
2019-03-13T10:49:52.381Z,13.58
2019-03-13T10:52:28.322Z,16.60
2019-03-13T10:55:01.062Z,14.93
2019-03-13T10:57:43.262Z,12.88
2019-03-13T11:00:21.313Z,16.77
2019-03-13T11:03:07.870Z,16.52
2019-03-13T11:05:54.472Z,22.73
2019-03-13T11:08:30.703Z,22.55
2019-03-13T11:11:00.817Z,14.85
2019-03-13T11:13:39.475Z,13.48
2019-03-13T11:16:21.868Z,16.20
2019-03-13T11:18:54.675Z,17.10
2019-03-13T11:21:27.859Z,13.72
2019-03-13T11:24:04.218Z,19.00
2019-03-13T11:26:50.527Z,15.75
2019-03-13T11:29:20.545Z,16.70
2019-03-13T11:31:50.595Z,17.67
2019-03-13T11:34:23.648Z,13.55
2019-03-13T11:37:09.985Z,11.97
2019-03-13T11:39:58.417Z,13.15
2019-03-13T11:42:44.831Z,13.62
2019-03-13T11:45:28.231Z,17.67
2019-03-13T11:48:01.188Z,13.38
2019-03-13T11:50:40.299Z,16.85
2019-03-13T11:53:16.634Z,8.48
2019-03-13T11:55:49.614Z,7.70
2019-03-13T11:58:37.769Z,11.68
2019-03-13T12:01:07.880Z,9.15
2019-03-13T12:03:54.150Z,11.15
2019-03-13T12:06:36.311Z,12.58
2019-03-13T12:09:10.088Z,15.60
2019-03-13T12:11:40.130Z,9.88
2019-03-13T12:14:10.290Z,14.58
2019-03-13T12:16:46.348Z,9.95
2019-03-13T12:19:25.287Z,11.35
2019-03-13T12:22:04.480Z,9.58
2019-03-13T12:24:37.205Z,13.18
2019-03-13T12:27:13.414Z,11.15
2019-03-13T12:30:01.710Z,16.60
2019-03-13T12:32:43.413Z,10.18
2019-03-13T12:35:22.778Z,11.05
2019-03-13T12:37:58.882Z,8.88
2019-03-13T12:40:28.973Z,10.48
2019-03-13T12:42:59.057Z,8.68
2019-03-13T12:45:45.451Z,11.20
2019-03-13T12:48:32.181Z,10.18
2019-03-13T12:51:02.247Z,13.13
2019-03-13T12:53:32.330Z,15.32
2019-03-13T12:56:03.362Z,12.23
2019-03-13T12:58:49.538Z,11.88
2019-03-13T13:01:37.953Z,8.38
2019-03-13T13:06:55.214Z,15.50
2019-03-13T13:09:34.656Z,14.00
2019-03-13T13:12:07.684Z,14.15
2019-03-13T13:14:54.239Z,15.38
2019-03-13T13:17:24.291Z,15.55
2019-03-13T13:19:52.684Z,18.85
2019-03-13T13:22:21.094Z,17.73
2019-03-13T13:24:49.485Z,15.55
2019-03-13T13:27:17.974Z,10.65
2019-03-13T13:29:46.482Z,12.43
2019-03-13T13:32:14.886Z,21.37
2019-03-13T13:34:43.355Z,24.57
2019-03-13T13:37:11.845Z,21.68
2019-03-13T13:39:40.245Z,20.45
2019-03-13T13:42:08.714Z,21.02
2019-03-13T13:44:37.118Z,20.97
2019-03-13T13:47:05.550Z,22.13
2019-03-13T13:49:33.997Z,21.97
2019-03-13T13:52:02.458Z,24.02
2019-03-13T13:54:30.921Z,21.50
2019-03-13T13:56:59.323Z,23.70
2019-03-13T13:59:27.723Z,23.47
2019-03-13T14:01:56.180Z,21.17
2019-03-13T14:04:24.592Z,28.80
2019-03-13T14:06:53.062Z,29.20
2019-03-13T14:09:22.588Z,27.52
2019-03-13T14:11:51.050Z,25.15
2019-03-13T14:14:19.518Z,30.82
2019-03-13T14:16:47.924Z,25.65
2019-03-13T14:19:16.357Z,22.73
2019-03-13T14:21:44.836Z,21.27
2019-03-13T14:24:13.260Z,24.75
2019-03-13T14:26:41.712Z,30.68
2019-03-13T14:29:10.134Z,29.92
2019-03-13T14:31:38.531Z,21.73
2019-03-13T14:34:06.958Z,27.15
2019-03-13T14:36:35.405Z,26.50
2019-03-13T14:39:04.874Z,24.72
2019-03-13T14:41:33.294Z,23.55
2019-03-13T14:44:01.687Z,20.75
2019-03-13T14:46:30.181Z,17.85
2019-03-13T14:48:58.751Z,18.07
2019-03-13T14:51:27.146Z,12.50
2019-03-13T14:53:55.557Z,16.52
2019-03-13T14:56:24.094Z,7.12
2019-03-13T14:58:52.485Z,9.63
2019-03-13T15:01:20.904Z,9.43
2019-03-13T15:03:49.477Z,12.13
2019-03-13T15:06:17.868Z,13.90
2019-03-13T15:08:46.418Z,18.70
2019-03-13T15:11:14.826Z,19.77
2019-03-13T15:13:43.255Z,19.95
2019-03-13T15:16:11.689Z,17.15
2019-03-13T15:18:40.137Z,22.30
2019-03-13T15:21:08.514Z,24.30
2019-03-13T15:23:36.940Z,20.68
2019-03-13T15:26:05.383Z,14.45
2019-03-13T15:28:33.783Z,23.70
2019-03-13T15:31:02.250Z,24.65
2019-03-13T15:33:30.646Z,25.00
2019-03-13T15:36:00.038Z,17.82
2019-03-13T15:38:28.482Z,21.00
2019-03-13T15:40:58.084Z,16.50
2019-03-13T15:43:26.726Z,15.72
2019-03-13T15:45:55.117Z,21.75
2019-03-13T15:48:23.615Z,14.80
2019-03-13T15:50:51.991Z,19.98
2019-03-13T15:53:20.403Z,22.77
2019-03-13T15:55:48.884Z,14.53
2019-03-13T15:58:17.280Z,14.10
2019-03-13T16:00:45.737Z,21.52
2019-03-13T16:03:14.121Z,23.50
2019-03-13T16:05:44.546Z,17.15
2019-03-13T16:08:12.934Z,18.37
2019-03-13T16:10:41.404Z,18.15
2019-03-13T16:13:10.859Z,18.95
2019-03-13T16:15:40.741Z,16.37
2019-03-13T16:18:09.253Z,16.05
2019-03-13T16:20:37.735Z,13.35
2019-03-13T16:23:06.166Z,20.50
2019-03-13T16:25:35.683Z,13.35
2019-03-13T16:28:04.162Z,17.52
2019-03-13T16:30:52.401Z,25.37
2019-03-13T16:33:20.868Z,19.02
2019-03-13T16:35:49.262Z,18.05
2019-03-13T16:38:17.725Z,21.82
2019-03-13T16:40:46.099Z,17.00
2019-03-13T16:43:14.618Z,23.67
2019-03-13T16:45:43.038Z,25.62
2019-03-13T16:48:11.437Z,21.82
2019-03-13T16:50:39.876Z,18.85
2019-03-13T16:53:08.254Z,23.50
2019-03-13T16:55:37.646Z,28.55
2019-03-13T16:58:06.018Z,27.73
2019-03-13T17:00:34.806Z,29.67
2019-03-13T17:03:03.237Z,23.60
2019-03-13T17:05:44.872Z,29.25
2019-03-13T17:08:13.256Z,27.27
2019-03-13T17:10:41.676Z,28.27
2019-03-13T17:13:10.085Z,28.98
2019-03-13T17:15:39.558Z,27.02
2019-03-13T17:18:07.958Z,25.27
2019-03-13T17:20:40.741Z,26.30
2019-03-13T17:23:09.256Z,28.30
2019-03-13T17:25:37.649Z,37.40
2019-03-13T17:28:06.062Z,34.78
2019-03-13T17:30:34.456Z,32.58
2019-03-13T17:33:02.898Z,38.80
2019-03-13T17:35:31.295Z,31.87
2019-03-13T17:38:00.706Z,28.15
2019-03-13T17:40:33.077Z,33.05
2019-03-13T17:43:01.547Z,23.15
2019-03-13T17:45:30.038Z,27.20
2019-03-13T17:47:58.427Z,33.80
2019-03-13T17:50:26.883Z,25.72
2019-03-13T17:52:55.313Z,32.90
2019-03-13T17:55:43.172Z,41.77
2019-03-13T17:58:11.590Z,35.58
2019-03-13T18:00:51.423Z,37.08
2019-03-13T18:03:20.815Z,37.53
2019-03-13T18:05:49.200Z,45.30
2019-03-13T18:08:17.598Z,38.45
2019-03-13T18:10:46.030Z,39.85
2019-03-13T18:13:14.414Z,35.73
2019-03-13T18:15:42.937Z,33.00
2019-03-13T18:18:11.319Z,46.55
2019-03-13T18:20:39.752Z,46.70
2019-03-13T18:23:08.222Z,57.85
2019-03-13T18:25:36.566Z,46.75
2019-03-13T18:28:05.040Z,51.00
2019-03-13T18:30:34.666Z,45.78
2019-03-13T18:33:03.058Z,58.13
2019-03-13T18:35:31.513Z,41.83
2019-03-13T18:37:59.960Z,41.02
2019-03-13T18:40:28.335Z,38.67
2019-03-13T18:42:56.791Z,37.15
2019-03-13T18:45:28.005Z,44.58
2019-03-13T18:47:56.632Z,44.98
2019-03-13T18:50:25.022Z,46.00
2019-03-13T18:52:53.428Z,44.00
2019-03-13T18:55:24.338Z,40.65
2019-03-13T18:57:52.785Z,64.30
2019-03-13T19:00:28.314Z,47.58
2019-03-13T19:02:56.872Z,44.67
2019-03-13T19:05:27.344Z,41.65
2019-03-13T19:07:55.779Z,46.23
2019-03-13T19:10:28.529Z,52.17
2019-03-13T19:12:56.978Z,39.30
2019-03-13T19:15:25.438Z,43.58
2019-03-13T19:17:53.822Z,45.10
2019-03-13T19:20:26.181Z,31.35
2019-03-13T19:22:54.559Z,39.58
2019-03-13T19:25:24.077Z,49.67
2019-03-13T19:27:52.478Z,38.70
2019-03-13T19:30:26.140Z,36.73
2019-03-13T19:32:54.545Z,38.08
2019-03-13T19:35:22.985Z,35.17
2019-03-13T19:37:51.503Z,36.77
2019-03-13T19:40:20.911Z,35.52
2019-03-13T19:42:49.327Z,41.73
2019-03-13T19:45:26.788Z,41.02
2019-03-13T19:47:55.242Z,56.20
2019-03-13T19:50:23.642Z,35.25
2019-03-13T19:52:52.045Z,49.18
2019-03-13T19:55:20.448Z,38.15
2019-03-13T19:57:48.846Z,41.08
2019-03-13T20:00:22.792Z,49.10
2019-03-13T20:03:00.045Z,40.80
2019-03-13T20:05:21.275Z,39.70
2019-03-13T20:07:49.814Z,35.58
2019-03-13T20:10:21.617Z,56.00
2019-03-13T20:12:50.024Z,44.25
2019-03-13T20:15:20.297Z,49.63
2019-03-13T20:17:48.804Z,49.60
2019-03-13T20:20:19.134Z,40.25
2019-03-13T20:22:48.935Z,42.30
2019-03-13T20:25:18.116Z,37.98
2019-03-13T20:27:46.838Z,52.58
2019-03-13T20:30:17.834Z,41.55
2019-03-13T20:32:46.325Z,45.60
2019-03-13T20:35:14.733Z,59.58
2019-03-13T20:37:43.113Z,44.83
2019-03-13T20:40:39.556Z,44.50
2019-03-13T20:43:08.096Z,53.90
2019-03-13T20:45:36.525Z,45.75
2019-03-13T20:48:05.017Z,63.50
2019-03-13T20:50:37.165Z,41.48
2019-03-13T20:53:03.668Z,44.77
2019-03-13T20:55:33.097Z,49.05
2019-03-13T20:58:01.548Z,53.55
2019-03-13T21:00:30.053Z,40.60
2019-03-13T21:02:58.723Z,45.70
2019-03-13T21:05:27.146Z,31.27
2019-03-13T21:07:55.557Z,42.60
2019-03-13T21:10:23.982Z,36.23
2019-03-13T21:12:52.393Z,27.40
2019-03-13T21:15:23.248Z,39.92
2019-03-13T21:17:51.734Z,34.65
2019-03-13T21:20:20.557Z,36.13
2019-03-13T21:22:48.966Z,36.20
2019-03-13T21:25:22.500Z,28.10
2019-03-13T21:27:50.869Z,51.50
2019-03-13T21:30:27.273Z,40.65
2019-03-13T21:32:55.896Z,39.13
2019-03-13T21:35:24.332Z,42.90
2019-03-13T21:37:52.743Z,38.20
2019-03-13T21:40:25.256Z,35.33
2019-03-13T21:42:54.893Z,35.88
2019-03-13T21:45:23.705Z,29.52
2019-03-13T21:47:52.082Z,28.35
2019-03-13T21:50:20.612Z,31.68
2019-03-13T21:52:49.110Z,35.70
2019-03-13T21:55:18.262Z,26.85
2019-03-13T21:57:46.676Z,21.37
2019-03-13T22:00:25.384Z,20.68
2019-03-13T22:02:53.784Z,38.73
2019-03-13T22:05:26.066Z,31.70
2019-03-13T22:07:52.576Z,29.55
2019-03-13T22:10:21.253Z,26.27
2019-03-13T22:12:49.688Z,37.55
2019-03-13T22:15:20.282Z,27.35
2019-03-13T22:17:48.703Z,28.20
2019-03-13T22:20:17.536Z,34.92
2019-03-13T22:22:46.045Z,47.30
2019-03-13T22:25:15.677Z,35.88
2019-03-13T22:27:44.131Z,45.38
2019-03-13T22:30:18.726Z,40.63
2019-03-13T22:32:47.114Z,36.35
2019-03-13T22:35:15.642Z,47.00
2019-03-13T22:37:44.132Z,32.00
2019-03-13T22:40:16.218Z,37.80
2019-03-13T22:42:44.564Z,44.33
2019-03-13T22:45:20.769Z,40.98
2019-03-13T22:47:49.226Z,43.48
2019-03-13T22:50:20.122Z,36.15
2019-03-13T22:52:48.614Z,30.30
2019-03-13T22:55:17.024Z,48.85
2019-03-13T22:57:45.454Z,41.37
2019-03-13T23:00:51.905Z,53.45
2019-03-13T23:03:27.500Z,50.90
2019-03-13T23:05:56.057Z,55.67
2019-03-13T23:08:24.466Z,56.02
2019-03-13T23:10:52.862Z,52.20
2019-03-13T23:13:21.348Z,47.48
2019-03-13T23:15:49.754Z,48.95
2019-03-13T23:18:18.678Z,52.75
2019-03-13T23:20:47.157Z,41.28
2019-03-13T23:23:15.608Z,51.13
2019-03-13T23:25:45.013Z,47.80
2019-03-13T23:28:13.453Z,53.25
2019-03-13T23:30:41.862Z,55.70
2019-03-13T23:33:10.323Z,65.95
2019-03-13T23:35:38.681Z,48.28
2019-03-13T23:38:07.099Z,44.42
2019-03-13T23:40:35.514Z,62.23
2019-03-13T23:43:03.922Z,46.33
2019-03-13T23:45:33.382Z,41.53
2019-03-13T23:48:01.798Z,51.77
2019-03-13T23:50:30.277Z,51.02
2019-03-13T23:52:58.800Z,38.28
2019-03-13T23:55:27.175Z,45.60
2019-03-13T23:57:55.557Z,46.65
